Time;durP1;ratioP1;P1;durP2;ratioP2;P2;SDS_P1;SDS_P2;PMS_P1;PMS_P2;Temp;Humidity;BMP_temperature;BMP_pressure;BME280_temperature;BME280_humidity;BME280_pressure;Samples;Min_cycle;Max_cycle;Signal;HPM_P1;HPM_P2
2022/07/30 00:00:46;;;;;;;10.88;5.05;;;;;;;27.21;43.91;98379.63;4502155;31;20177;-84
2022/07/30 00:03:12;;;;;;;10.70;4.47;;;;;;;27.19;44.07;98379.00;4502031;31;20087;-84
2022/07/30 00:05:37;;;;;;;12.40;5.12;;;;;;;27.12;44.36;98378.16;4502035;31;20088;-84
2022/07/30 00:08:03;;;;;;;9.20;4.50;;;;;;;27.06;44.53;98381.62;4502118;31;20408;-84
2022/07/30 00:10:28;;;;;;;10.52;4.90;;;;;;;27.13;44.35;98384.38;4504056;31;20084;-84
2022/07/30 00:12:53;;;;;;;10.32;4.82;;;;;;;26.99;44.78;98397.81;4504062;31;20115;-84
2022/07/30 00:15:19;;;;;;;11.10;4.70;;;;;;;26.99;44.80;98397.00;4489756;31;20104;-84
2022/07/30 00:17:44;;;;;;;11.27;5.18;;;;;;;26.87;45.14;98399.41;4489648;31;20092;-84
2022/07/30 00:20:10;;;;;;;10.75;5.05;;;;;;;26.60;45.74;98388.44;4503999;31;20084;-84
2022/07/30 00:22:35;;;;;;;10.02;4.45;;;;;;;26.76;45.40;98395.38;4503853;31;20105;-84
2022/07/30 00:25:01;;;;;;;9.68;5.00;;;;;;;26.93;44.96;98387.81;4503914;31;20106;-84
2022/07/30 00:27:26;;;;;;;11.38;5.20;;;;;;;26.83;45.04;98385.47;4489852;31;20105;-84
2022/07/30 00:29:51;;;;;;;11.98;4.80;;;;;;;26.90;44.92;98387.38;4489794;31;20092;-84
2022/07/30 00:32:17;;;;;;;10.95;4.78;;;;;;;26.87;45.01;98384.03;4503996;31;20098;-84
2022/07/30 00:34:42;;;;;;;10.18;5.00;;;;;;;26.77;45.29;98386.25;4504210;31;20140;-84
2022/07/30 00:37:08;;;;;;;10.90;5.30;;;;;;;26.90;44.93;98373.84;4504079;31;20447;-84
2022/07/30 00:39:33;;;;;;;10.18;5.37;;;;;;;26.80;45.10;98374.22;4504223;31;20128;-84
2022/07/30 00:42:01;;;;;;;11.27;4.75;;;;;;;26.73;45.30;98365.22;4503985;31;20217;-84
2022/07/30 00:44:28;;;;;;;9.82;4.82;;;;;;;26.82;45.08;98372.97;4504201;31;20104;-84
2022/07/30 00:46:54;;;;;;;10.63;4.70;;;;;;;26.85;45.03;98369.06;4503905;31;20118;-84
2022/07/30 00:49:20;;;;;;;10.68;5.03;;;;;;;26.96;44.87;98359.53;4489528;31;20092;-84
2022/07/30 00:51:45;;;;;;;9.70;4.95;;;;;;;26.57;45.71;98371.75;4503757;31;20076;-84
2022/07/30 00:54:11;;;;;;;11.25;5.03;;;;;;;26.82;45.06;98372.97;4503727;31;20088;-84
2022/07/30 00:56:37;;;;;;;12.23;4.72;;;;;;;26.88;44.93;98374.88;4489364;31;20397;-84
2022/07/30 00:59:02;;;;;;;11.60;5.68;;;;;;;26.45;45.96;98376.84;4489393;31;20475;-84
2022/07/30 01:01:30;;;;;;;11.35;5.40;;;;;;;26.47;45.95;98372.91;4489299;31;20218;-84
2022/07/30 01:03:56;;;;;;;11.27;5.35;;;;;;;26.67;45.46;98381.19;4503695;31;20096;-84
2022/07/30 01:06:21;;;;;;;12.80;5.80;;;;;;;26.76;45.31;98375.66;4503633;31;20109;-84
2022/07/30 01:08:47;;;;;;;12.68;5.45;;;;;;;26.75;45.36;98371.25;4503579;31;20100;-84
2022/07/30 01:11:12;;;;;;;11.02;5.75;;;;;;;26.78;45.28;98368.16;4503668;31;20114;-84
2022/07/30 01:13:38;;;;;;;14.73;5.75;;;;;;;26.72;45.48;98371.66;4489174;31;20454;-84
2022/07/30 01:16:03;;;;;;;10.85;5.47;;;;;;;26.76;45.37;98371.06;4503873;31;20092;-84
2022/07/30 01:19:47;;;;;;;11.98;5.50;;;;;;;26.81;45.25;98370.47;4489430;31;20329;-84
2022/07/30 01:21:17;;;;;;;9.73;4.82;;;;;;;26.87;45.06;98365.13;4503197;31;20080;-84
2022/07/30 01:23:45;;;;;;;10.07;5.57;;;;;;;26.63;45.79;98365.56;4489078;31;20096;-84
2022/07/30 01:26:13;;;;;;;11.12;5.43;;;;;;;26.74;45.38;98359.63;4489313;31;20161;-84
2022/07/30 01:28:41;;;;;;;10.02;4.85;;;;;;;26.79;45.24;98367.97;4489210;31;20084;-84
2022/07/30 01:31:08;;;;;;;9.90;5.25;;;;;;;26.77;45.37;98374.59;4503459;31;20820;-84
2022/07/30 01:33:38;;;;;;;10.77;5.07;;;;;;;26.87;45.08;98373.22;4489097;31;20161;-84
2022/07/30 01:36:07;;;;;;;10.65;5.03;;;;;;;26.78;45.27;98376.28;4489188;31;20224;-84
2022/07/30 01:38:33;;;;;;;12.82;6.03;;;;;;;26.54;45.87;98377.53;4489133;31;20132;-84
2022/07/30 01:40:59;;;;;;;10.23;5.35;;;;;;;26.37;46.39;98380.53;4489007;31;20344;-84
2022/07/30 01:43:25;;;;;;;11.00;5.60;;;;;;;26.40;46.36;98374.72;4503343;31;20123;-84
2022/07/30 01:45:51;;;;;;;10.80;5.12;;;;;;;26.21;46.74;98367.28;4489028;31;20092;-84
2022/07/30 01:48:19;;;;;;;10.35;5.47;;;;;;;26.28;46.69;98370.87;4488779;31;20473;-84
2022/07/30 01:50:47;;;;;;;11.02;5.00;;;;;;;25.84;47.62;98361.91;4503293;31;20371;-84
2022/07/30 01:53:25;;;;;;;12.10;5.15;;;;;;;25.74;47.97;98352.50;4488951;31;20104;-84
2022/07/30 01:55:52;;;;;;;11.88;5.43;;;;;;;25.50;48.68;98341.88;4489119;31;20104;-84
2022/07/30 01:58:19;;;;;;;12.45;5.03;;;;;;;25.79;47.87;98342.78;4488969;31;20080;-84
2022/07/30 02:00:45;;;;;;;9.70;4.90;;;;;;;26.02;47.18;98342.62;4488982;31;20114;-84
2022/07/30 02:03:11;;;;;;;11.00;5.53;;;;;;;25.97;47.37;98350.47;4488937;31;20104;-84
2022/07/30 02:05:37;;;;;;;11.98;4.95;;;;;;;26.03;47.28;98344.28;4488953;31;20601;-84
2022/07/30 02:08:10;;;;;;;12.35;5.22;;;;;;;26.00;47.32;98338.44;4503099;31;20115;-84
2022/07/30 02:10:51;;;;;;;10.38;4.82;;;;;;;26.17;46.93;98333.59;4488845;31;20159;-84
2022/07/30 02:13:20;;;;;;;10.88;5.37;;;;;;;26.33;46.65;98332.47;4488944;31;20108;-84
2022/07/30 02:15:56;;;;;;;10.48;5.40;;;;;;;26.10;47.34;98328.16;4488814;31;20161;-84
2022/07/30 02:18:31;;;;;;;11.68;5.35;;;;;;;26.12;47.35;98323.41;4489189;31;20088;-84
2022/07/30 02:21:06;;;;;;;12.23;5.57;;;;;;;26.12;47.33;98326.09;4488889;31;20116;-84
2022/07/30 02:23:37;;;;;;;10.55;5.30;;;;;;;26.21;47.20;98318.69;4476076;31;20558;-84
2022/07/30 02:26:03;;;;;;;12.75;6.00;;;;;;;26.08;47.54;98314.84;4503321;31;20087;-84
2022/07/30 02:28:29;;;;;;;10.60;5.50;;;;;;;25.76;48.45;98309.97;4503388;31;20163;-84
2022/07/30 02:30:58;;;;;;;10.88;4.80;;;;;;;26.06;47.66;98308.00;4488174;31;20119;-84
2022/07/30 02:33:27;;;;;;;11.57;5.47;;;;;;;25.85;48.23;98315.03;4488794;31;20100;-84
2022/07/30 02:35:53;;;;;;;13.18;5.62;;;;;;;25.88;48.17;98311.09;4488771;31;20096;-84
2022/07/30 02:38:19;;;;;;;12.23;5.60;;;;;;;25.88;48.21;98308.41;4488630;31;20096;-84
2022/07/30 02:40:46;;;;;;;12.13;5.68;;;;;;;25.35;49.77;98310.59;4488721;31;20143;-84
2022/07/30 02:43:15;;;;;;;11.35;5.50;;;;;;;25.33;49.87;98308.06;4503018;31;20088;-84
2022/07/30 02:45:41;;;;;;;11.55;5.85;;;;;;;25.49;49.37;98310.50;4488870;31;20482;-84
2022/07/30 02:48:08;;;;;;;12.20;5.55;;;;;;;25.27;50.07;98311.53;4488414;31;20114;-84
2022/07/30 02:50:34;;;;;;;11.15;5.72;;;;;;;25.14;50.54;98314.84;4488661;31;20098;-85
2022/07/30 02:53:01;;;;;;;12.03;5.73;;;;;;;24.96;51.08;98309.87;4488662;31;20471;-84
2022/07/30 02:55:30;;;;;;;10.43;5.00;;;;;;;25.23;50.35;98310.25;4488609;31;20100;-84
2022/07/30 02:57:56;;;;;;;11.20;5.35;;;;;;;25.12;50.77;98314.22;4488593;31;20079;-84
2022/07/30 03:00:24;;;;;;;11.40;5.53;;;;;;;24.75;51.90;98309.81;4488690;31;20087;-84
2022/07/30 03:02:51;;;;;;;11.43;5.60;;;;;;;24.22;53.59;98320.56;4503080;31;20134;-84
2022/07/30 03:05:17;;;;;;;11.35;5.40;;;;;;;24.93;51.56;98318.31;4488796;31;20171;-84
2022/07/30 03:07:43;;;;;;;11.07;5.45;;;;;;;24.76;52.05;98311.47;4503027;31;20084;-84
2022/07/30 03:10:10;;;;;;;11.70;5.35;;;;;;;24.34;53.28;98309.19;4488754;31;20095;-84
2022/07/30 03:12:37;;;;;;;11.82;5.97;;;;;;;24.81;52.04;98306.34;4488643;31;20104;-84
2022/07/30 03:15:03;;;;;;;10.98;5.22;;;;;;;24.52;52.72;98316.09;4488851;31;20168;-84
2022/07/30 03:17:34;;;;;;;10.95;5.40;;;;;;;24.76;52.06;98312.28;4488674;31;20096;-84
2022/07/30 03:20:00;;;;;;;11.15;5.32;;;;;;;24.54;52.79;98311.38;4502945;31;20556;-84
2022/07/30 03:22:25;;;;;;;10.50;5.82;;;;;;;24.81;51.95;98304.50;4488668;31;20095;-84
2022/07/30 03:24:53;;;;;;;10.32;5.47;;;;;;;24.63;52.44;98312.12;4488392;31;20153;-84
2022/07/30 03:27:18;;;;;;;14.05;5.60;;;;;;;24.60;52.61;98310.63;4488396;31;20421;-84
2022/07/30 03:29:45;;;;;;;11.43;5.97;;;;;;;24.31;53.31;98312.22;4475114;31;20083;-84
2022/07/30 03:32:11;;;;;;;10.98;5.20;;;;;;;24.55;52.79;98307.66;4502570;31;20135;-84
2022/07/30 03:34:37;;;;;;;11.43;4.65;;;;;;;24.79;52.09;98309.22;4488210;31;20104;-84
2022/07/30 03:37:04;;;;;;;10.80;5.20;;;;;;;24.73;52.18;98313.50;4502307;31;20088;-84
2022/07/30 03:39:32;;;;;;;12.82;5.18;;;;;;;24.91;51.67;98310.41;4502448;31;20089;-84
2022/07/30 03:41:58;;;;;;;10.02;5.00;;;;;;;24.88;51.84;98313.50;4487931;31;20153;-84
2022/07/30 03:44:23;;;;;;;11.65;5.22;;;;;;;24.97;51.58;98305.31;4502361;31;20096;-84
2022/07/30 03:46:49;;;;;;;11.95;5.37;;;;;;;24.78;52.02;98309.41;4501986;31;20453;-84
2022/07/30 03:49:15;;;;;;;11.73;5.37;;;;;;;24.19;54.02;98313.69;4487967;31;20162;-84
2022/07/30 03:51:41;;;;;;;10.50;5.03;;;;;;;24.42;53.40;98304.75;4502237;31;20084;-84
2022/07/30 03:54:08;;;;;;;10.88;4.50;;;;;;;24.58;52.84;98317.22;4487948;31;20345;-84
2022/07/30 03:56:34;;;;;;;9.43;4.15;;;;;;;24.82;52.10;98306.19;4488132;31;20143;-83
2022/07/30 03:58:59;;;;;;;11.48;4.85;;;;;;;24.63;52.52;98312.97;4487845;31;20100;-84
2022/07/30 04:01:25;;;;;;;9.95;4.85;;;;;;;24.55;52.75;98301.41;4487925;31;20443;-84
2022/07/30 04:03:51;;;;;;;10.80;4.65;;;;;;;24.26;53.79;98314.66;4502124;31;20503;-84
2022/07/30 04:06:16;;;;;;;11.60;5.10;;;;;;;24.76;52.38;98308.75;4475034;31;20092;-84
2022/07/30 04:08:41;;;;;;;11.30;4.97;;;;;;;24.88;51.96;98309.97;4502312;31;20088;-84
2022/07/30 04:11:07;;;;;;;9.00;4.57;;;;;;;24.95;51.74;98316.28;4502252;31;20107;-84
2022/07/30 04:13:32;;;;;;;9.90;4.72;;;;;;;24.46;53.31;98309.56;4502385;31;20371;-84
2022/07/30 04:16:03;;;;;;;10.95;4.72;;;;;;;24.52;53.29;98306.16;4502161;31;20436;-84
2022/07/30 04:18:32;;;;;;;10.73;4.97;;;;;;;24.70;52.90;98304.94;4487819;31;20115;-84
2022/07/30 04:20:58;;;;;;;10.68;4.68;;;;;;;24.59;53.13;98305.41;4487589;31;20112;-84
2022/07/30 04:23:24;;;;;;;11.77;4.90;;;;;;;24.40;53.84;98312.16;4487500;31;20112;-84
2022/07/30 04:25:50;;;;;;;10.70;5.15;;;;;;;24.31;54.21;98317.63;4487485;31;20080;-85
2022/07/30 04:28:16;;;;;;;11.63;4.43;;;;;;;24.35;54.19;98315.41;4501650;31;20080;-84
2022/07/30 04:30:42;;;;;;;9.93;4.87;;;;;;;24.39;54.14;98319.38;4487446;31;20156;-84
2022/07/30 04:33:07;;;;;;;9.63;4.78;;;;;;;24.46;53.95;98314.94;4501631;31;20127;-84
2022/07/30 04:35:33;;;;;;;10.43;4.85;;;;;;;24.55;53.83;98325.66;4487361;31;20451;-84
2022/07/30 04:38:01;;;;;;;10.95;5.07;;;;;;;24.84;52.97;98322.13;4501650;31;20099;-84
2022/07/30 04:40:27;;;;;;;11.40;4.60;;;;;;;24.72;53.38;98329.84;4487212;31;20451;-84
2022/07/30 04:42:52;;;;;;;10.32;4.70;;;;;;;24.47;54.27;98340.88;4501548;31;20096;-84
2022/07/30 04:45:19;;;;;;;10.40;5.07;;;;;;;24.42;54.46;98343.25;4487208;31;20084;-84
2022/07/30 04:47:45;;;;;;;9.17;4.50;;;;;;;25.01;52.83;98329.00;4501122;31;20366;-84
2022/07/30 04:50:11;;;;;;;10.57;4.68;;;;;;;24.92;52.96;98322.06;4501457;31;20406;-84
2022/07/30 04:52:36;;;;;;;9.73;4.87;;;;;;;24.90;53.07;98327.62;4501348;31;20156;-84
2022/07/30 04:55:05;;;;;;;9.40;4.75;;;;;;;25.18;52.23;98321.53;4502316;31;20096;-84
2022/07/30 04:57:32;;;;;;;9.68;4.72;;;;;;;25.29;52.04;98326.47;4489436;31;20060;-84
2022/07/30 04:59:58;;;;;;;9.18;4.85;;;;;;;25.41;51.86;98329.53;4503813;31;20127;-84
2022/07/30 05:02:26;;;;;;;11.05;4.97;;;;;;;25.64;51.10;98323.97;4489283;31;20148;-83
2022/07/30 05:04:51;;;;;;;9.80;4.70;;;;;;;25.30;52.00;98328.16;4489331;31;20084;-84
2022/07/30 05:07:18;;;;;;;11.60;4.80;;;;;;;25.12;52.53;98341.16;4503777;31;20080;-84
2022/07/30 05:09:43;;;;;;;9.85;5.05;;;;;;;24.99;52.96;98343.69;4503729;31;20168;-84
2022/07/30 05:12:09;;;;;;;10.13;4.78;;;;;;;24.49;54.54;98344.22;4489218;31;20092;-83
2022/07/30 05:14:34;;;;;;;10.27;5.10;;;;;;;24.56;54.46;98340.81;4503706;31;20168;-84
2022/07/30 05:17:00;;;;;;;11.88;4.87;;;;;;;24.77;53.80;98332.81;4503484;31;20164;-84
2022/07/30 05:19:25;;;;;;;10.40;4.62;;;;;;;25.04;53.13;98339.41;4503545;31;20118;-84
2022/07/30 05:21:51;;;;;;;10.82;4.95;;;;;;;25.29;52.40;98334.56;4489121;31;20151;-84
2022/07/30 05:24:17;;;;;;;11.80;5.12;;;;;;;24.38;54.90;98341.97;4489458;31;20088;-84
2022/07/30 05:26:42;;;;;;;10.13;4.93;;;;;;;25.03;53.27;98334.19;4488995;31;20472;-84
2022/07/30 05:29:08;;;;;;;11.18;4.57;;;;;;;25.19;52.83;98331.31;4503516;31;20104;-84
2022/07/30 05:31:33;;;;;;;11.35;5.15;;;;;;;25.59;51.69;98333.66;4503530;31;20107;-84
2022/07/30 05:33:59;;;;;;;9.43;4.53;;;;;;;25.59;51.58;98331.78;4503501;31;20128;-84
2022/07/30 05:36:24;;;;;;;10.63;4.90;;;;;;;25.95;50.67;98335.50;4503393;31;20146;-84
2022/07/30 05:38:50;;;;;;;10.75;4.97;;;;;;;25.94;50.70;98325.72;4489106;31;20133;-84
2022/07/30 05:41:15;;;;;;;10.82;4.97;;;;;;;26.25;49.85;98328.91;4503492;31;20147;-84
2022/07/30 05:43:41;;;;;;;10.48;4.53;;;;;;;25.75;51.36;98333.41;4503357;31;20092;-84
2022/07/30 05:46:07;;;;;;;10.38;4.47;;;;;;;25.68;51.62;98337.91;4489059;31;20137;-84
2022/07/30 05:48:34;;;;;;;11.00;5.00;;;;;;;25.84;51.15;98343.03;4488766;31;20156;-84
2022/07/30 05:51:00;;;;;;;;;;;;;;;26.04;50.70;98337.88;4489261;31;20112;-84
2022/07/30 05:53:25;;;;;;;10.57;4.55;;;;;;;26.29;50.24;98343.69;4503421;31;19981;-84
2022/07/30 05:55:50;;;;;;;11.15;5.05;;;;;;;25.79;51.17;98342.78;4503296;31;20100;-84
2022/07/30 05:58:16;;;;;;;10.38;4.95;;;;;;;26.53;49.28;98346.16;4503421;31;20096;-84
2022/07/30 06:00:42;;;;;;;9.98;4.90;;;;;;;26.74;48.54;98339.87;4503238;31;20084;-84
2022/07/30 06:03:07;;;;;;;11.02;4.80;;;;;;;26.65;48.83;98340.00;4503259;31;20100;-84
2022/07/30 06:05:32;;;;;;;8.82;4.18;;;;;;;26.74;48.48;98346.13;4503236;31;20084;-84
2022/07/30 06:07:58;;;;;;;9.85;4.60;;;;;;;26.70;48.63;98346.72;4488798;31;20092;-84
2022/07/30 06:10:24;;;;;;;11.27;4.72;;;;;;;26.05;50.31;98350.31;4503252;31;20118;-84
2022/07/30 06:12:49;;;;;;;10.98;4.97;;;;;;;26.56;49.05;98343.91;4503240;31;20182;-84
2022/07/30 06:15:14;;;;;;;10.38;5.12;;;;;;;26.79;48.45;98340.09;4488640;31;20124;-84
2022/07/30 06:17:42;;;;;;;10.27;5.00;;;;;;;26.34;49.72;98359.28;4489078;31;20139;-84
2022/07/30 06:20:08;;;;;;;9.40;4.40;;;;;;;26.71;48.72;98348.38;4489128;31;20470;-84
2022/07/30 06:22:33;;;;;;;9.00;4.20;;;;;;;26.77;48.71;98344.88;4488988;31;20080;-83
2022/07/30 06:24:59;;;;;;;10.32;5.07;;;;;;;26.27;50.12;98350.31;4503401;31;20381;-84
2022/07/30 06:27:26;;;;;;;9.63;4.65;;;;;;;26.74;48.93;98359.63;4503342;31;20409;-83
2022/07/30 06:29:51;;;;;;;10.95;5.20;;;;;;;26.91;48.12;98356.59;4503410;31;20124;-83
2022/07/30 06:32:18;;;;;;;10.18;5.12;;;;;;;26.50;49.11;98360.88;4503354;31;20118;-84
2022/07/30 06:34:44;;;;;;;10.50;5.30;;;;;;;26.44;49.43;98357.09;4489128;31;20071;-84
2022/07/30 06:37:09;;;;;;;10.48;5.18;;;;;;;26.85;48.62;98356.38;4503343;31;20119;-83
2022/07/30 06:39:34;;;;;;;9.40;4.87;;;;;;;26.67;49.17;98347.94;4503193;31;20127;-83
2022/07/30 06:42:00;;;;;;;11.23;5.00;;;;;;;26.50;49.89;98352.75;4503304;31;20084;-83
2022/07/30 06:44:25;;;;;;;11.45;4.47;;;;;;;26.86;48.81;98347.22;4503294;31;20088;-83
2022/07/30 06:46:51;;;;;;;10.45;5.20;;;;;;;26.34;50.15;98356.59;4502936;31;20115;-84
2022/07/30 06:49:16;;;;;;;10.68;4.97;;;;;;;26.94;48.77;98361.59;4488952;31;20092;-84
2022/07/30 06:51:42;;;;;;;10.00;4.68;;;;;;;26.72;49.23;98367.09;4503222;31;20072;-83
2022/07/30 06:54:07;;;;;;;10.50;4.57;;;;;;;26.85;48.91;98361.78;4488840;31;20442;-84
2022/07/30 06:56:32;;;;;;;9.05;4.15;;;;;;;26.88;48.30;98360.53;4488755;31;20089;-84
2022/07/30 06:58:58;;;;;;;11.25;4.95;;;;;;;27.26;47.31;98352.84;4503076;31;20136;-84
2022/07/30 07:01:23;;;;;;;9.98;4.32;;;;;;;27.21;47.34;98354.47;4488844;31;20073;-84
2022/07/30 07:03:49;;;;;;;10.48;4.37;;;;;;;27.25;47.33;98342.22;4488832;31;20107;-84
2022/07/30 07:06:14;;;;;;;9.85;4.45;;;;;;;27.21;47.66;98355.28;4502749;31;20507;-84
2022/07/30 07:08:40;;;;;;;9.25;3.90;;;;;;;27.78;46.16;98338.87;4502857;31;20110;-84
2022/07/30 07:11:05;;;;;;;9.60;4.10;;;;;;;27.64;46.24;98343.41;4488554;31;20140;-84
2022/07/30 07:13:31;;;;;;;10.52;4.45;;;;;;;27.34;46.73;98340.19;4502789;31;20072;-84
2022/07/30 07:15:57;;;;;;;9.10;3.97;;;;;;;27.47;46.26;98340.25;4502797;31;20096;-83
2022/07/30 07:18:22;;;;;;;10.05;4.22;;;;;;;27.35;46.81;98331.03;4487716;31;20118;-84
2022/07/30 07:20:48;;;;;;;9.18;3.87;;;;;;;27.80;46.13;98334.09;4488446;31;20072;-84
2022/07/30 07:23:13;;;;;;;9.07;3.97;;;;;;;28.31;45.01;98322.66;4502583;31;20072;-84
2022/07/30 07:25:40;;;;;;;9.20;3.95;;;;;;;28.30;44.83;98326.44;4502615;31;20122;-84
2022/07/30 07:28:06;;;;;;;9.50;3.60;;;;;;;28.66;44.04;98324.31;4502536;31;20127;-84
2022/07/30 07:30:32;;;;;;;9.43;4.03;;;;;;;28.98;43.42;98312.56;4488419;31;20136;-84
2022/07/30 07:32:58;;;;;;;8.68;3.92;;;;;;;28.74;43.25;98321.38;4502611;31;20088;-84
2022/07/30 07:35:23;;;;;;;9.00;3.97;;;;;;;29.10;42.86;98320.84;4502496;31;20438;-84
2022/07/30 07:37:48;;;;;;;9.50;3.70;;;;;;;29.58;41.92;98312.31;4502416;31;20076;-84
2022/07/30 07:40:14;;;;;;;10.18;3.70;;;;;;;29.58;41.55;98317.72;4488088;31;20451;-84
2022/07/30 07:42:40;;;;;;;8.77;3.65;;;;;;;29.62;41.29;98314.59;4502723;31;20106;-84
2022/07/30 07:45:06;;;;;;;9.80;3.53;;;;;;;29.95;40.28;98306.25;4502672;31;20119;-84
2022/07/30 07:47:44;;;;;;;9.15;4.37;;;;;;;29.73;40.80;98317.47;4502490;31;20116;-84
2022/07/30 07:50:10;;;;;;;8.95;3.85;;;;;;;29.14;42.16;98321.28;4502683;31;20162;-84
2022/07/30 07:52:35;;;;;;;9.05;4.22;;;;;;;29.71;40.78;98332.25;4488198;31;20080;-84
2022/07/30 07:55:01;;;;;;;11.10;4.03;;;;;;;29.49;40.92;98334.50;4502462;31;20447;-84
2022/07/30 07:57:26;;;;;;;8.77;4.03;;;;;;;29.43;41.16;98344.34;4502518;31;20084;-84
2022/07/30 07:59:53;;;;;;;8.68;4.00;;;;;;;29.08;41.95;98354.69;4502548;31;20132;-84
2022/07/30 08:02:18;;;;;;;9.25;4.18;;;;;;;28.36;43.27;98358.09;4502348;31;20100;-84
2022/07/30 08:04:45;;;;;;;10.30;4.18;;;;;;;28.67;42.50;98353.94;4502328;31;20119;-84
2022/07/30 08:07:11;;;;;;;10.32;4.37;;;;;;;28.89;42.22;98367.25;4502349;31;20118;-84
2022/07/30 08:09:36;;;;;;;10.45;4.07;;;;;;;29.01;42.36;98360.97;4502308;31;20092;-84
2022/07/30 08:12:02;;;;;;;9.60;4.20;;;;;;;29.04;42.22;98353.44;4502246;31;20069;-84
2022/07/30 08:14:27;;;;;;;8.05;3.85;;;;;;;28.94;42.20;98343.88;4502221;31;20092;-84
2022/07/30 08:16:52;;;;;;;8.55;4.00;;;;;;;29.02;42.09;98343.62;4502166;31;20448;-84
2022/07/30 08:19:18;;;;;;;8.38;3.60;;;;;;;29.04;42.20;98346.13;4502205;31;20156;-84
2022/07/30 08:21:43;;;;;;;9.25;3.90;;;;;;;28.69;42.88;98346.44;4502119;31;20387;-84
2022/07/30 08:24:09;;;;;;;8.80;3.95;;;;;;;28.56;43.32;98346.44;4502114;31;20088;-84
2022/07/30 08:26:34;;;;;;;10.98;4.15;;;;;;;28.60;43.05;98353.94;4502010;31;20108;-84
2022/07/30 08:29:00;;;;;;;9.52;4.12;;;;;;;28.73;43.09;98357.69;4502091;31;20449;-84
2022/07/30 08:31:25;;;;;;;8.75;3.83;;;;;;;28.66;42.46;98368.53;4504122;31;20100;-84
2022/07/30 08:33:50;;;;;;;8.80;3.80;;;;;;;28.96;41.62;98365.34;4503984;31;20116;-84
2022/07/30 08:36:16;;;;;;;10.27;3.90;;;;;;;28.86;41.75;98368.50;4489870;31;20116;-84
2022/07/30 08:38:41;;;;;;;9.32;3.83;;;;;;;28.85;41.93;98382.28;4504131;31;20080;-84
2022/07/30 08:41:07;;;;;;;9.20;3.90;;;;;;;28.96;41.72;98374.31;4503985;31;20100;-84
2022/07/30 08:43:34;;;;;;;8.80;4.07;;;;;;;29.11;41.60;98368.66;4489789;31;20131;-84
2022/07/30 08:46:02;;;;;;;9.27;3.80;;;;;;;29.10;41.51;98383.25;4504247;31;20189;-84
2022/07/30 08:48:28;;;;;;;9.57;3.75;;;;;;;29.51;40.99;98367.66;4489442;31;20488;-84
2022/07/30 08:50:54;;;;;;;9.52;4.00;;;;;;;29.77;40.33;98369.47;4503856;31;20167;-84
2022/07/30 08:53:20;;;;;;;8.13;3.70;;;;;;;29.78;40.15;98369.22;4476236;31;20116;-84
2022/07/30 08:55:45;;;;;;;9.82;3.83;;;;;;;30.03;39.48;98364.91;4489465;31;20434;-84
2022/07/30 08:58:28;;;;;;;8.68;3.92;;;;;;;29.97;39.65;98362.00;4489431;31;20101;-84
2022/07/30 09:00:54;;;;;;;8.40;3.75;;;;;;;29.91;38.82;98352.03;4503874;31;20117;-84
2022/07/30 09:03:20;;;;;;;7.82;3.78;;;;;;;29.09;41.05;98359.91;4503701;31;20123;-84
2022/07/30 09:05:45;;;;;;;9.57;4.30;;;;;;;29.96;39.90;98359.50;4503730;31;20096;-84
2022/07/30 09:08:11;;;;;;;8.80;4.30;;;;;;;29.47;41.10;98369.97;4503560;31;20129;-84
2022/07/30 09:10:37;;;;;;;9.73;4.15;;;;;;;29.54;40.51;98367.25;4489312;31;20115;-84
2022/07/30 09:13:02;;;;;;;8.68;3.95;;;;;;;29.36;40.89;98370.66;4503637;31;20107;-84
2022/07/30 09:15:28;;;;;;;11.05;4.80;;;;;;;29.53;40.85;98371.00;4503541;31;20483;-84
2022/07/30 09:18:01;;;;;;;10.05;4.72;;;;;;;29.03;42.61;98368.84;4503857;31;20084;-84
2022/07/30 09:20:35;;;;;;;11.63;5.43;;;;;;;29.06;42.77;98373.88;4503759;31;20397;-84
2022/07/30 09:23:02;;;;;;;12.15;6.00;;;;;;;28.59;44.58;98365.84;4489343;31;20123;-84
2022/07/30 09:25:42;;;;;;;13.82;7.03;;;;;;;28.41;45.68;98366.44;4503663;31;20143;-84
2022/07/30 09:28:09;;;;;;;13.07;6.68;;;;;;;27.41;48.84;98370.78;4489231;31;20079;-84
2022/07/30 09:30:53;;;;;;;14.50;6.78;;;;;;;27.83;47.78;98363.44;4503546;31;20107;-84
2022/07/30 09:33:30;;;;;;;12.40;7.15;;;;;;;26.88;50.15;98371.34;4503562;31;20126;-84
2022/07/30 09:35:56;;;;;;;16.52;6.53;;;;;;;26.20;52.21;98376.44;4503474;31;20122;-84
2022/07/30 09:38:22;;;;;;;13.90;6.60;;;;;;;26.61;51.01;98375.75;4503428;31;20080;-84
2022/07/30 09:40:55;;;;;;;14.05;7.18;;;;;;;26.25;51.84;98371.25;4488989;31;20123;-84
2022/07/30 09:43:21;;;;;;;13.73;7.22;;;;;;;26.86;49.97;98376.94;4503363;31;20156;-83
2022/07/30 09:45:54;;;;;;;13.40;7.80;;;;;;;25.90;52.77;98377.37;4489083;31;20100;-84
2022/07/30 09:48:26;;;;;;;13.93;7.50;;;;;;;26.04;52.35;98378.37;4489123;31;20088;-84
2022/07/30 09:50:53;;;;;;;15.43;7.72;;;;;;;25.98;52.60;98387.25;4503373;31;20105;-84
2022/07/30 09:53:21;;;;;;;13.50;7.75;;;;;;;25.68;53.47;98392.69;4489040;31;20466;-84
2022/07/30 09:55:47;;;;;;;17.17;8.80;;;;;;;25.04;56.45;98405.97;4489362;31;20096;-84
2022/07/30 09:58:13;;;;;;;23.00;9.82;;;;;;;25.18;58.78;98417.75;4503290;31;20098;-85
2022/07/30 10:00:39;;;;;;;19.25;10.13;;;;;;;25.28;60.98;98418.34;4488878;31;20061;-84
2022/07/30 10:03:20;;;;;;;23.25;12.37;;;;;;;24.29;62.81;98404.97;4503355;31;20356;-83
2022/07/30 10:05:57;;;;;;;17.00;10.38;;;;;;;25.39;62.75;98404.38;4503346;31;20521;-84
2022/07/30 10:08:41;;;;;;;20.47;10.60;;;;;;;25.20;61.13;98394.13;4488693;31;20131;-83
2022/07/30 10:11:13;;;;;;;18.85;10.07;;;;;;;25.41;60.64;98390.72;4488902;31;20084;-82
2022/07/30 10:13:40;;;;;;;15.98;9.30;;;;;;;25.46;60.92;98382.91;4503132;31;20084;-82
2022/07/30 10:16:05;;;;;;;16.95;9.60;;;;;;;25.15;61.61;98391.16;4488874;31;20103;-82
2022/07/30 10:18:31;;;;;;;18.37;9.43;;;;;;;25.13;60.99;98380.59;4488751;31;20103;-82
2022/07/30 10:20:57;;;;;;;20.20;10.57;;;;;;;25.34;61.11;98368.22;4503196;31;20095;-82
2022/07/30 10:23:26;;;;;;;18.37;9.88;;;;;;;25.05;61.74;98370.75;4503174;31;20088;-82
2022/07/30 10:25:54;;;;;;;18.37;10.63;;;;;;;24.86;62.55;98385.59;4489166;31;20155;-82
2022/07/30 10:28:20;;;;;;;16.67;9.38;;;;;;;25.18;62.98;98391.63;4488727;31;20131;-82
2022/07/30 10:30:49;;;;;;;19.05;9.63;;;;;;;25.36;62.80;98390.44;4503086;31;20102;-82
2022/07/30 10:33:14;;;;;;;17.23;10.27;;;;;;;25.59;62.62;98388.44;4488781;31;20145;-82
2022/07/30 10:35:40;;;;;;;17.33;9.50;;;;;;;25.74;62.65;98377.59;4488775;31;20119;-82
2022/07/30 10:38:09;;;;;;;16.62;9.05;;;;;;;25.79;61.96;98383.28;4502978;31;20118;-83
2022/07/30 10:40:39;;;;;;;16.55;9.40;;;;;;;25.75;60.72;98386.53;4488677;31;20102;-82
2022/07/30 10:43:42;;;;;;;16.87;9.45;;;;;;;25.93;60.85;98395.06;4488669;31;20096;-82
2022/07/30 10:46:13;;;;;;;14.27;8.88;;;;;;;26.07;60.62;98401.44;4410095;32;20153;-83
2022/07/30 10:48:39;;;;;;;15.70;9.35;;;;;;;26.07;60.01;98402.25;4422686;32;20113;-83
2022/07/30 10:51:04;;;;;;;17.55;10.00;;;;;;;25.85;59.54;98400.56;4422882;32;20437;-83
2022/07/30 10:53:47;;;;;;;18.27;9.90;;;;;;;25.64;60.04;98401.37;4409266;32;20137;-82
2022/07/30 10:56:18;;;;;;;16.12;10.13;;;;;;;25.83;60.43;98403.44;4410437;32;20105;-82
2022/07/30 10:59:08;;;;;;;16.33;9.70;;;;;;;25.91;60.35;98397.12;4422970;32;20326;-82
2022/07/30 11:01:46;;;;;;;15.98;9.57;;;;;;;26.08;60.24;98393.13;4410012;32;20117;-82
2022/07/30 11:04:22;;;;;;;17.90;10.15;;;;;;;26.12;59.16;98376.56;4422710;32;20462;-82
2022/07/30 11:06:48;;;;;;;16.87;10.95;;;;;;;26.04;59.49;98370.25;4422658;32;20265;-82
2022/07/30 11:09:36;;;;;;;16.27;11.07;;;;;;;25.91;60.05;98370.13;4409861;32;20161;-82
2022/07/30 11:12:02;;;;;;;17.87;10.93;;;;;;;25.61;61.55;98364.81;4422733;32;20116;-82
2022/07/30 11:14:46;;;;;;;16.33;10.65;;;;;;;25.70;60.78;98363.66;4422662;32;20501;-82
2022/07/30 11:17:18;;;;;;;16.08;11.12;;;;;;;25.56;61.67;98345.66;4422691;32;20110;-83
2022/07/30 11:20:03;;;;;;;16.50;11.02;;;;;;;25.58;62.76;98346.31;4409804;32;20507;-82
2022/07/30 11:22:39;;;;;;;18.87;11.05;;;;;;;25.73;62.26;98335.47;4452714;31;20106;-83
2022/07/30 11:25:11;;;;;;;15.20;10.32;;;;;;;25.73;62.58;98324.69;4502588;31;20119;-83
2022/07/30 11:27:45;;;;;;;15.68;9.90;;;;;;;26.23;61.72;98316.63;4488296;31;20122;-83